NCAR-RAP Real-Time Weather Data

Output produced by METARs form (22 January 2018  04:06 UTC)
found at http://weather.rap.ucar.edu/surface/
 
Conditions at: KHQZ observed 22 January 2018  03:55 UTC
Temperature: 14.8°C (59°F)
Dewpoint: 6.0°C (43°F) [RH = 56%]
Pressure (altimeter): 29.83 inches Hg (1010.2 mb)
Winds: from the W (260 degrees) at 7 MPH (6 knots; 3.1 m/s)
Visibility: 7 miles (11 km)
Ceiling: 6500 feet AGL
Clouds: scattered clouds at 1300 feet AGL
scattered clouds at 2400 feet AGL
overcast cloud deck at 6500 feet AGL
Present Weather: automated observation with no human augmentation;
there may or may not be significant weather present at this time
KHQZ 220355Z AUTO 26006KT 7SM SCT013 SCT024 OVC065 15/06 A2983 RMK AO1 T01480060